sensor_id;sensor_type;location;lat;lon;timestamp;P1;durP1;ratioP1;P2;durP2;ratioP2
39044;SDS011;52192;52.002;5.956;2022-11-20T00:01:07;4.20;;;2.95;;
39044;SDS011;52192;52.002;5.956;2022-11-20T00:03:43;4.38;;;2.83;;
39044;SDS011;52192;52.002;5.956;2022-11-20T00:06:10;8.30;;;3.08;;
39044;SDS011;52192;52.002;5.956;2022-11-20T00:08:37;3.33;;;2.00;;
39044;SDS011;52192;52.002;5.956;2022-11-20T00:11:36;3.88;;;2.53;;
39044;SDS011;52192;52.002;5.956;2022-11-20T00:13:56;2.83;;;2.35;;
39044;SDS011;52192;52.002;5.956;2022-11-20T00:16:24;3.05;;;2.60;;
39044;SDS011;52192;52.002;5.956;2022-11-20T00:18:52;3.30;;;2.60;;
39044;SDS011;52192;52.002;5.956;2022-11-20T00:21:19;3.72;;;2.58;;
39044;SDS011;52192;52.002;5.956;2022-11-20T00:23:50;8.32;;;2.85;;
39044;SDS011;52192;52.002;5.956;2022-11-20T00:26:17;3.30;;;2.50;;
39044;SDS011;52192;52.002;5.956;2022-11-20T00:28:48;4.20;;;2.65;;
39044;SDS011;52192;52.002;5.956;2022-11-20T00:31:18;3.83;;;2.60;;
39044;SDS011;52192;52.002;5.956;2022-11-20T00:33:44;4.55;;;2.63;;
39044;SDS011;52192;52.002;5.956;2022-11-20T00:36:14;3.70;;;2.42;;
39044;SDS011;52192;52.002;5.956;2022-11-20T00:38:42;3.50;;;2.63;;
39044;SDS011;52192;52.002;5.956;2022-11-20T00:41:09;2.70;;;1.90;;
39044;SDS011;52192;52.002;5.956;2022-11-20T00:43:36;2.40;;;2.00;;
39044;SDS011;52192;52.002;5.956;2022-11-20T00:46:06;4.95;;;2.60;;
39044;SDS011;52192;52.002;5.956;2022-11-20T00:48:33;3.08;;;2.47;;
39044;SDS011;52192;52.002;5.956;2022-11-20T00:50:59;4.43;;;2.80;;
39044;SDS011;52192;52.002;5.956;2022-11-20T00:53:25;3.00;;;2.35;;
39044;SDS011;52192;52.002;5.956;2022-11-20T00:55:55;4.07;;;2.22;;
39044;SDS011;52192;52.002;5.956;2022-11-20T00:58:28;3.50;;;2.20;;
39044;SDS011;52192;52.002;5.956;2022-11-20T01:01:06;13.10;;;2.63;;
39044;SDS011;52192;52.002;5.956;2022-11-20T01:03:37;5.22;;;2.60;;
39044;SDS011;52192;52.002;5.956;2022-11-20T01:06:05;5.50;;;2.20;;
39044;SDS011;52192;52.002;5.956;2022-11-20T01:08:36;3.42;;;2.17;;
39044;SDS011;52192;52.002;5.956;2022-11-20T01:11:04;3.67;;;2.05;;
39044;SDS011;52192;52.002;5.956;2022-11-20T01:13:32;2.30;;;2.10;;
39044;SDS011;52192;52.002;5.956;2022-11-20T01:16:11;4.07;;;2.08;;
39044;SDS011;52192;52.002;5.956;2022-11-20T01:18:43;5.30;;;2.85;;
39044;SDS011;52192;52.002;5.956;2022-11-20T01:21:14;3.80;;;2.47;;
39044;SDS011;52192;52.002;5.956;2022-11-20T01:23:45;6.70;;;2.65;;
39044;SDS011;52192;52.002;5.956;2022-11-20T01:26:13;4.15;;;2.53;;
39044;SDS011;52192;52.002;5.956;2022-11-20T01:28:43;2.45;;;2.13;;
39044;SDS011;52192;52.002;5.956;2022-11-20T01:31:20;4.47;;;3.15;;
39044;SDS011;52192;52.002;5.956;2022-11-20T01:33:51;3.72;;;1.98;;
39044;SDS011;52192;52.002;5.956;2022-11-20T01:36:18;3.85;;;2.88;;
39044;SDS011;52192;52.002;5.956;2022-11-20T01:38:46;2.80;;;2.38;;
39044;SDS011;52192;52.002;5.956;2022-11-20T01:41:13;4.72;;;2.88;;
39044;SDS011;52192;52.002;5.956;2022-11-20T01:43:59;2.38;;;1.92;;
39044;SDS011;52192;52.002;5.956;2022-11-20T01:46:27;3.35;;;2.10;;
39044;SDS011;52192;52.002;5.956;2022-11-20T01:48:59;3.80;;;2.85;;
39044;SDS011;52192;52.002;5.956;2022-11-20T01:52:02;3.30;;;2.75;;
39044;SDS011;52192;52.002;5.956;2022-11-20T01:54:36;3.45;;;2.08;;
39044;SDS011;52192;52.002;5.956;2022-11-20T01:57:09;3.78;;;2.25;;
39044;SDS011;52192;52.002;5.956;2022-11-20T01:59:41;5.10;;;2.97;;
39044;SDS011;52192;52.002;5.956;2022-11-20T02:02:11;5.88;;;2.40;;
39044;SDS011;52192;52.002;5.956;2022-11-20T02:04:37;5.10;;;2.88;;
39044;SDS011;52192;52.002;5.956;2022-11-20T02:07:02;3.45;;;2.28;;
39044;SDS011;52192;52.002;5.956;2022-11-20T02:09:30;3.45;;;2.30;;
39044;SDS011;52192;52.002;5.956;2022-11-20T02:11:56;2.88;;;1.95;;
39044;SDS011;52192;52.002;5.956;2022-11-20T02:14:22;2.83;;;2.63;;
39044;SDS011;52192;52.002;5.956;2022-11-20T02:16:49;4.18;;;2.50;;
39044;SDS011;52192;52.002;5.956;2022-11-20T02:19:28;3.63;;;2.33;;
39044;SDS011;52192;52.002;5.956;2022-11-20T02:21:59;3.40;;;2.58;;
39044;SDS011;52192;52.002;5.956;2022-11-20T02:24:33;2.90;;;2.45;;
39044;SDS011;52192;52.002;5.956;2022-11-20T02:27:00;4.63;;;3.10;;
39044;SDS011;52192;52.002;5.956;2022-11-20T02:29:33;7.63;;;2.70;;
39044;SDS011;52192;52.002;5.956;2022-11-20T02:32:23;3.63;;;2.55;;
39044;SDS011;52192;52.002;5.956;2022-11-20T02:34:51;3.78;;;2.95;;
39044;SDS011;52192;52.002;5.956;2022-11-20T02:37:17;3.55;;;2.42;;
39044;SDS011;52192;52.002;5.956;2022-11-20T02:39:44;6.00;;;2.58;;
39044;SDS011;52192;52.002;5.956;2022-11-20T02:42:12;3.50;;;2.30;;
39044;SDS011;52192;52.002;5.956;2022-11-20T02:44:38;5.05;;;2.05;;
39044;SDS011;52192;52.002;5.956;2022-11-20T02:47:04;4.18;;;2.45;;
39044;SDS011;52192;52.002;5.956;2022-11-20T02:49:30;4.55;;;2.70;;
39044;SDS011;52192;52.002;5.956;2022-11-20T02:51:56;6.15;;;3.17;;
39044;SDS011;52192;52.002;5.956;2022-11-20T02:54:21;3.83;;;2.88;;
39044;SDS011;52192;52.002;5.956;2022-11-20T02:56:48;2.78;;;2.05;;
39044;SDS011;52192;52.002;5.956;2022-11-20T02:59:14;5.00;;;2.50;;
39044;SDS011;52192;52.002;5.956;2022-11-20T03:01:40;5.07;;;2.58;;
39044;SDS011;52192;52.002;5.956;2022-11-20T03:04:05;4.15;;;2.33;;
39044;SDS011;52192;52.002;5.956;2022-11-20T03:06:31;4.55;;;2.50;;
39044;SDS011;52192;52.002;5.956;2022-11-20T03:08:57;4.80;;;2.83;;
39044;SDS011;52192;52.002;5.956;2022-11-20T03:11:23;1.88;;;1.77;;
39044;SDS011;52192;52.002;5.956;2022-11-20T03:13:49;3.50;;;2.47;;
39044;SDS011;52192;52.002;5.956;2022-11-20T03:16:19;2.85;;;2.30;;
39044;SDS011;52192;52.002;5.956;2022-11-20T03:18:46;2.90;;;2.15;;
39044;SDS011;52192;52.002;5.956;2022-11-20T03:21:12;3.55;;;2.47;;
39044;SDS011;52192;52.002;5.956;2022-11-20T03:23:40;4.00;;;2.20;;
39044;SDS011;52192;52.002;5.956;2022-11-20T03:28:40;5.05;;;2.38;;
39044;SDS011;52192;52.002;5.956;2022-11-20T03:31:08;3.72;;;2.35;;
39044;SDS011;52192;52.002;5.956;2022-11-20T03:33:35;3.85;;;2.40;;
39044;SDS011;52192;52.002;5.956;2022-11-20T03:36:05;5.63;;;3.25;;
39044;SDS011;52192;52.002;5.956;2022-11-20T03:38:32;4.70;;;2.65;;
39044;SDS011;52192;52.002;5.956;2022-11-20T03:41:02;3.97;;;2.15;;
39044;SDS011;52192;52.002;5.956;2022-11-20T03:43:30;3.10;;;2.70;;
39044;SDS011;52192;52.002;5.956;2022-11-20T03:45:56;3.20;;;2.58;;
39044;SDS011;52192;52.002;5.956;2022-11-20T03:48:22;4.10;;;2.08;;
39044;SDS011;52192;52.002;5.956;2022-11-20T03:50:48;5.25;;;3.17;;
39044;SDS011;52192;52.002;5.956;2022-11-20T03:53:14;3.53;;;2.30;;
39044;SDS011;52192;52.002;5.956;2022-11-20T03:55:40;4.30;;;2.60;;
39044;SDS011;52192;52.002;5.956;2022-11-20T03:58:06;2.28;;;2.08;;
39044;SDS011;52192;52.002;5.956;2022-11-20T04:00:32;2.17;;;1.95;;
39044;SDS011;52192;52.002;5.956;2022-11-20T04:02:58;8.55;;;3.80;;
39044;SDS011;52192;52.002;5.956;2022-11-20T04:05:25;8.90;;;2.50;;
39044;SDS011;52192;52.002;5.956;2022-11-20T04:07:50;2.53;;;2.28;;
39044;SDS011;52192;52.002;5.956;2022-11-20T04:10:16;5.50;;;2.03;;
39044;SDS011;52192;52.002;5.956;2022-11-20T04:12:42;3.35;;;2.70;;
39044;SDS011;52192;52.002;5.956;2022-11-20T04:15:08;2.85;;;2.20;;
39044;SDS011;52192;52.002;5.956;2022-11-20T04:17:34;3.67;;;2.67;;
39044;SDS011;52192;52.002;5.956;2022-11-20T04:19:59;3.45;;;2.17;;
39044;SDS011;52192;52.002;5.956;2022-11-20T04:22:25;2.75;;;2.33;;
39044;SDS011;52192;52.002;5.956;2022-11-20T04:24:51;4.43;;;1.95;;
39044;SDS011;52192;52.002;5.956;2022-11-20T04:27:17;6.22;;;2.80;;
39044;SDS011;52192;52.002;5.956;2022-11-20T04:29:42;3.33;;;3.00;;
39044;SDS011;52192;52.002;5.956;2022-11-20T04:32:08;3.13;;;2.22;;
39044;SDS011;52192;52.002;5.956;2022-11-20T04:34:34;18.52;;;2.80;;
39044;SDS011;52192;52.002;5.956;2022-11-20T04:37:00;3.58;;;2.60;;
39044;SDS011;52192;52.002;5.956;2022-11-20T04:39:26;5.15;;;2.85;;
39044;SDS011;52192;52.002;5.956;2022-11-20T04:41:52;5.07;;;2.78;;
39044;SDS011;52192;52.002;5.956;2022-11-20T04:44:38;2.92;;;2.38;;
39044;SDS011;52192;52.002;5.956;2022-11-20T04:47:03;2.55;;;1.90;;
39044;SDS011;52192;52.002;5.956;2022-11-20T04:49:29;3.60;;;2.15;;
39044;SDS011;52192;52.002;5.956;2022-11-20T04:51:56;8.75;;;3.22;;
39044;SDS011;52192;52.002;5.956;2022-11-20T04:54:22;4.85;;;3.17;;
39044;SDS011;52192;52.002;5.956;2022-11-20T04:56:48;3.65;;;2.88;;
39044;SDS011;52192;52.002;5.956;2022-11-20T04:59:13;4.68;;;2.75;;
39044;SDS011;52192;52.002;5.956;2022-11-20T05:01:39;4.50;;;2.78;;
39044;SDS011;52192;52.002;5.956;2022-11-20T05:04:05;2.78;;;2.20;;
39044;SDS011;52192;52.002;5.956;2022-11-20T05:06:31;5.13;;;3.00;;
39044;SDS011;52192;52.002;5.956;2022-11-20T05:08:57;4.10;;;1.92;;
39044;SDS011;52192;52.002;5.956;2022-11-20T05:11:23;4.32;;;3.28;;
39044;SDS011;52192;52.002;5.956;2022-11-20T05:13:49;4.32;;;2.42;;
39044;SDS011;52192;52.002;5.956;2022-11-20T05:16:17;3.97;;;2.47;;
39044;SDS011;52192;52.002;5.956;2022-11-20T05:18:44;6.25;;;3.50;;
39044;SDS011;52192;52.002;5.956;2022-11-20T05:21:11;9.10;;;2.78;;
39044;SDS011;52192;52.002;5.956;2022-11-20T05:23:38;5.57;;;3.20;;
39044;SDS011;52192;52.002;5.956;2022-11-20T05:26:18;8.35;;;3.50;;
39044;SDS011;52192;52.002;5.956;2022-11-20T05:28:46;5.13;;;2.72;;
39044;SDS011;52192;52.002;5.956;2022-11-20T05:31:13;7.20;;;4.05;;
39044;SDS011;52192;52.002;5.956;2022-11-20T05:33:41;6.22;;;3.08;;
39044;SDS011;52192;52.002;5.956;2022-11-20T05:36:09;4.22;;;2.83;;
39044;SDS011;52192;52.002;5.956;2022-11-20T05:38:36;5.90;;;3.72;;
39044;SDS011;52192;52.002;5.956;2022-11-20T05:41:03;8.57;;;3.20;;
39044;SDS011;52192;52.002;5.956;2022-11-20T05:43:33;5.82;;;3.42;;
39044;SDS011;52192;52.002;5.956;2022-11-20T05:46:00;3.25;;;2.15;;
39044;SDS011;52192;52.002;5.956;2022-11-20T05:48:27;4.47;;;3.33;;
39044;SDS011;52192;52.002;5.956;2022-11-20T05:50:53;5.57;;;3.33;;
39044;SDS011;52192;52.002;5.956;2022-11-20T05:53:18;4.28;;;3.15;;
39044;SDS011;52192;52.002;5.956;2022-11-20T05:55:44;7.80;;;3.63;;
39044;SDS011;52192;52.002;5.956;2022-11-20T05:58:10;7.97;;;3.20;;
39044;SDS011;52192;52.002;5.956;2022-11-20T06:00:35;5.55;;;2.67;;
39044;SDS011;52192;52.002;5.956;2022-11-20T06:03:02;4.65;;;3.33;;
39044;SDS011;52192;52.002;5.956;2022-11-20T06:05:27;5.47;;;3.22;;
39044;SDS011;52192;52.002;5.956;2022-11-20T06:07:53;4.70;;;3.40;;
39044;SDS011;52192;52.002;5.956;2022-11-20T06:10:19;7.07;;;3.78;;
39044;SDS011;52192;52.002;5.956;2022-11-20T06:12:44;3.90;;;3.22;;
39044;SDS011;52192;52.002;5.956;2022-11-20T06:15:10;6.18;;;2.80;;
39044;SDS011;52192;52.002;5.956;2022-11-20T06:17:36;3.40;;;2.65;;
39044;SDS011;52192;52.002;5.956;2022-11-20T06:20:01;5.57;;;3.75;;
39044;SDS011;52192;52.002;5.956;2022-11-20T06:22:27;6.28;;;3.45;;
39044;SDS011;52192;52.002;5.956;2022-11-20T06:24:53;5.88;;;3.50;;
39044;SDS011;52192;52.002;5.956;2022-11-20T06:27:18;3.85;;;2.55;;
39044;SDS011;52192;52.002;5.956;2022-11-20T06:29:44;5.13;;;2.65;;
39044;SDS011;52192;52.002;5.956;2022-11-20T06:32:10;6.50;;;3.47;;
39044;SDS011;52192;52.002;5.956;2022-11-20T06:34:35;4.85;;;2.67;;
39044;SDS011;52192;52.002;5.956;2022-11-20T06:37:01;3.72;;;2.28;;
39044;SDS011;52192;52.002;5.956;2022-11-20T06:39:27;6.65;;;3.63;;
39044;SDS011;52192;52.002;5.956;2022-11-20T06:41:52;4.63;;;3.33;;
39044;SDS011;52192;52.002;5.956;2022-11-20T06:44:18;5.95;;;2.85;;
39044;SDS011;52192;52.002;5.956;2022-11-20T06:46:44;5.00;;;3.42;;
39044;SDS011;52192;52.002;5.956;2022-11-20T06:49:09;5.18;;;3.05;;
39044;SDS011;52192;52.002;5.956;2022-11-20T06:51:35;5.15;;;2.97;;
39044;SDS011;52192;52.002;5.956;2022-11-20T06:54:01;6.20;;;3.72;;
39044;SDS011;52192;52.002;5.956;2022-11-20T06:56:27;3.72;;;2.50;;
39044;SDS011;52192;52.002;5.956;2022-11-20T06:58:53;6.38;;;3.83;;
39044;SDS011;52192;52.002;5.956;2022-11-20T07:01:18;8.40;;;3.60;;
39044;SDS011;52192;52.002;5.956;2022-11-20T07:03:44;4.55;;;2.65;;
39044;SDS011;52192;52.002;5.956;2022-11-20T07:06:10;5.20;;;3.67;;
39044;SDS011;52192;52.002;5.956;2022-11-20T07:08:36;5.28;;;2.92;;
39044;SDS011;52192;52.002;5.956;2022-11-20T07:11:05;4.50;;;2.92;;
39044;SDS011;52192;52.002;5.956;2022-11-20T07:13:32;4.40;;;3.35;;
39044;SDS011;52192;52.002;5.956;2022-11-20T07:16:02;6.28;;;2.97;;
39044;SDS011;52192;52.002;5.956;2022-11-20T07:18:29;4.82;;;2.95;;
39044;SDS011;52192;52.002;5.956;2022-11-20T07:20:55;7.00;;;3.53;;
39044;SDS011;52192;52.002;5.956;2022-11-20T07:23:20;4.32;;;3.45;;
39044;SDS011;52192;52.002;5.956;2022-11-20T07:25:46;6.93;;;3.95;;
39044;SDS011;52192;52.002;5.956;2022-11-20T07:28:12;5.03;;;3.22;;
39044;SDS011;52192;52.002;5.956;2022-11-20T07:30:38;5.13;;;2.95;;
39044;SDS011;52192;52.002;5.956;2022-11-20T07:33:04;4.30;;;2.95;;
39044;SDS011;52192;52.002;5.956;2022-11-20T07:35:30;5.63;;;3.97;;
39044;SDS011;52192;52.002;5.956;2022-11-20T07:37:55;4.78;;;3.17;;
39044;SDS011;52192;52.002;5.956;2022-11-20T07:40:21;5.65;;;2.90;;
39044;SDS011;52192;52.002;5.956;2022-11-20T07:42:50;9.63;;;3.25;;
39044;SDS011;52192;52.002;5.956;2022-11-20T07:45:20;6.50;;;3.60;;
39044;SDS011;52192;52.002;5.956;2022-11-20T07:47:47;4.40;;;3.28;;
39044;SDS011;52192;52.002;5.956;2022-11-20T07:50:13;5.03;;;2.92;;
39044;SDS011;52192;52.002;5.956;2022-11-20T07:52:39;5.90;;;3.75;;
39044;SDS011;52192;52.002;5.956;2022-11-20T07:55:05;6.32;;;3.88;;
39044;SDS011;52192;52.002;5.956;2022-11-20T07:57:31;3.58;;;3.25;;
39044;SDS011;52192;52.002;5.956;2022-11-20T07:59:57;5.50;;;3.70;;
39044;SDS011;52192;52.002;5.956;2022-11-20T08:02:23;6.70;;;3.28;;
39044;SDS011;52192;52.002;5.956;2022-11-20T08:04:48;4.55;;;3.47;;
39044;SDS011;52192;52.002;5.956;2022-11-20T08:07:14;6.20;;;3.55;;
39044;SDS011;52192;52.002;5.956;2022-11-20T08:09:40;6.93;;;4.53;;
39044;SDS011;52192;52.002;5.956;2022-11-20T08:12:05;6.75;;;3.75;;
39044;SDS011;52192;52.002;5.956;2022-11-20T08:14:49;6.93;;;3.63;;
39044;SDS011;52192;52.002;5.956;2022-11-20T08:17:15;6.43;;;4.35;;
39044;SDS011;52192;52.002;5.956;2022-11-20T08:19:41;5.05;;;3.28;;
39044;SDS011;52192;52.002;5.956;2022-11-20T08:22:06;8.88;;;4.25;;
39044;SDS011;52192;52.002;5.956;2022-11-20T08:24:32;4.55;;;3.45;;
39044;SDS011;52192;52.002;5.956;2022-11-20T08:26:58;11.02;;;4.70;;
39044;SDS011;52192;52.002;5.956;2022-11-20T08:29:24;7.90;;;4.78;;
39044;SDS011;52192;52.002;5.956;2022-11-20T08:31:51;6.72;;;4.47;;
39044;SDS011;52192;52.002;5.956;2022-11-20T08:34:17;8.80;;;5.25;;
39044;SDS011;52192;52.002;5.956;2022-11-20T08:36:42;9.18;;;4.93;;
39044;SDS011;52192;52.002;5.956;2022-11-20T08:39:11;7.65;;;5.00;;
39044;SDS011;52192;52.002;5.956;2022-11-20T08:41:38;7.00;;;4.00;;
39044;SDS011;52192;52.002;5.956;2022-11-20T08:44:04;5.30;;;4.22;;
39044;SDS011;52192;52.002;5.956;2022-11-20T08:46:33;5.82;;;3.90;;
39044;SDS011;52192;52.002;5.956;2022-11-20T08:49:07;8.63;;;4.85;;
39044;SDS011;52192;52.002;5.956;2022-11-20T08:51:34;7.97;;;4.82;;
39044;SDS011;52192;52.002;5.956;2022-11-20T08:54:01;9.50;;;5.70;;
39044;SDS011;52192;52.002;5.956;2022-11-20T08:56:26;7.25;;;4.68;;
39044;SDS011;52192;52.002;5.956;2022-11-20T08:58:52;8.23;;;6.32;;
39044;SDS011;52192;52.002;5.956;2022-11-20T09:01:18;4.80;;;4.30;;
39044;SDS011;52192;52.002;5.956;2022-11-20T09:03:45;7.32;;;5.03;;
39044;SDS011;52192;52.002;5.956;2022-11-20T09:06:11;10.40;;;5.97;;
39044;SDS011;52192;52.002;5.956;2022-11-20T09:08:36;7.47;;;5.47;;
39044;SDS011;52192;52.002;5.956;2022-11-20T09:11:02;8.93;;;5.10;;
39044;SDS011;52192;52.002;5.956;2022-11-20T09:13:29;8.40;;;5.03;;
39044;SDS011;52192;52.002;5.956;2022-11-20T09:16:04;8.57;;;5.70;;
39044;SDS011;52192;52.002;5.956;2022-11-20T09:18:32;6.65;;;4.90;;
39044;SDS011;52192;52.002;5.956;2022-11-20T09:21:01;8.23;;;5.65;;
39044;SDS011;52192;52.002;5.956;2022-11-20T09:23:33;8.88;;;5.55;;
39044;SDS011;52192;52.002;5.956;2022-11-20T09:26:04;10.10;;;4.90;;
39044;SDS011;52192;52.002;5.956;2022-11-20T09:28:30;6.65;;;4.35;;
39044;SDS011;52192;52.002;5.956;2022-11-20T09:30:57;9.25;;;4.70;;
39044;SDS011;52192;52.002;5.956;2022-11-20T09:33:22;5.85;;;3.97;;
39044;SDS011;52192;52.002;5.956;2022-11-20T09:35:48;5.30;;;4.55;;
39044;SDS011;52192;52.002;5.956;2022-11-20T09:38:14;8.48;;;4.63;;
39044;SDS011;52192;52.002;5.956;2022-11-20T09:40:56;7.18;;;5.30;;
39044;SDS011;52192;52.002;5.956;2022-11-20T09:47:01;8.35;;;4.55;;
39044;SDS011;52192;52.002;5.956;2022-11-20T09:50:49;7.32;;;4.45;;
39044;SDS011;52192;52.002;5.956;2022-11-20T09:53:08;5.60;;;4.20;;
39044;SDS011;52192;52.002;5.956;2022-11-20T09:55:55;8.48;;;5.05;;
39044;SDS011;52192;52.002;5.956;2022-11-20T09:58:27;8.10;;;4.32;;
39044;SDS011;52192;52.002;5.956;2022-11-20T10:01:09;8.15;;;4.72;;
39044;SDS011;52192;52.002;5.956;2022-11-20T10:03:59;10.98;;;5.68;;
39044;SDS011;52192;52.002;5.956;2022-11-20T10:06:33;6.90;;;5.00;;
39044;SDS011;52192;52.002;5.956;2022-11-20T10:11:39;9.82;;;4.35;;
39044;SDS011;52192;52.002;5.956;2022-11-20T10:17:12;7.47;;;4.85;;
39044;SDS011;52192;52.002;5.956;2022-11-20T10:22:55;5.55;;;3.97;;
39044;SDS011;52192;52.002;5.956;2022-11-20T10:25:44;6.53;;;4.13;;
39044;SDS011;52192;52.002;5.956;2022-11-20T10:34:54;12.15;;;5.35;;
39044;SDS011;52192;52.002;5.956;2022-11-20T10:36:58;7.15;;;4.93;;
39044;SDS011;52192;52.002;5.956;2022-11-20T10:42:11;9.68;;;4.65;;
39044;SDS011;52192;52.002;5.956;2022-11-20T10:44:42;6.47;;;5.72;;
39044;SDS011;52192;52.002;5.956;2022-11-20T10:50:13;5.72;;;4.53;;
39044;SDS011;52192;52.002;5.956;2022-11-20T11:01:39;10.68;;;7.05;;
39044;SDS011;52192;52.002;5.956;2022-11-20T11:03:52;9.40;;;5.70;;
39044;SDS011;52192;52.002;5.956;2022-11-20T11:09:03;12.00;;;6.90;;
39044;SDS011;52192;52.002;5.956;2022-11-20T11:11:37;8.98;;;5.38;;
39044;SDS011;52192;52.002;5.956;2022-11-20T11:14:04;9.40;;;6.50;;
39044;SDS011;52192;52.002;5.956;2022-11-20T11:16:30;10.85;;;6.60;;
39044;SDS011;52192;52.002;5.956;2022-11-20T11:19:11;11.63;;;7.07;;
39044;SDS011;52192;52.002;5.956;2022-11-20T11:21:38;8.02;;;6.55;;
39044;SDS011;52192;52.002;5.956;2022-11-20T11:24:21;10.90;;;7.13;;
39044;SDS011;52192;52.002;5.956;2022-11-20T11:26:51;10.93;;;6.65;;
39044;SDS011;52192;52.002;5.956;2022-11-20T11:29:22;10.20;;;5.40;;
39044;SDS011;52192;52.002;5.956;2022-11-20T11:31:48;10.63;;;6.32;;
39044;SDS011;52192;52.002;5.956;2022-11-20T11:34:15;11.75;;;5.97;;
39044;SDS011;52192;52.002;5.956;2022-11-20T11:36:47;11.27;;;6.10;;
39044;SDS011;52192;52.002;5.956;2022-11-20T11:39:21;8.25;;;5.30;;
39044;SDS011;52192;52.002;5.956;2022-11-20T11:41:47;11.73;;;6.25;;
39044;SDS011;52192;52.002;5.956;2022-11-20T11:44:20;15.63;;;7.22;;
39044;SDS011;52192;52.002;5.956;2022-11-20T11:47:09;11.00;;;7.20;;
39044;SDS011;52192;52.002;5.956;2022-11-20T11:49:43;10.70;;;6.72;;
39044;SDS011;52192;52.002;5.956;2022-11-20T11:52:17;8.07;;;6.32;;
39044;SDS011;52192;52.002;5.956;2022-11-20T11:54:50;10.00;;;7.05;;
39044;SDS011;52192;52.002;5.956;2022-11-20T12:05:18;10.05;;;6.45;;
39044;SDS011;52192;52.002;5.956;2022-11-20T12:08:05;12.15;;;6.03;;
39044;SDS011;52192;52.002;5.956;2022-11-20T12:13:26;8.80;;;6.40;;
39044;SDS011;52192;52.002;5.956;2022-11-20T12:15:52;12.05;;;7.10;;
39044;SDS011;52192;52.002;5.956;2022-11-20T12:18:19;10.63;;;7.30;;
39044;SDS011;52192;52.002;5.956;2022-11-20T12:20:56;10.35;;;6.03;;
39044;SDS011;52192;52.002;5.956;2022-11-20T12:23:53;7.47;;;5.40;;
39044;SDS011;52192;52.002;5.956;2022-11-20T12:28:59;10.73;;;6.88;;
39044;SDS011;52192;52.002;5.956;2022-11-20T12:43:30;7.88;;;6.25;;
39044;SDS011;52192;52.002;5.956;2022-11-20T12:47:12;10.65;;;4.50;;
39044;SDS011;52192;52.002;5.956;2022-11-20T12:50:32;8.10;;;6.18;;
39044;SDS011;52192;52.002;5.956;2022-11-20T12:52:56;8.90;;;5.18;;
39044;SDS011;52192;52.002;5.956;2022-11-20T13:04:07;6.47;;;4.65;;
39044;SDS011;52192;52.002;5.956;2022-11-20T13:06:40;7.25;;;5.32;;
39044;SDS011;52192;52.002;5.956;2022-11-20T13:09:08;11.50;;;6.70;;
39044;SDS011;52192;52.002;5.956;2022-11-20T13:14:46;8.48;;;6.10;;
39044;SDS011;52192;52.002;5.956;2022-11-20T13:19:52;17.83;;;6.53;;
39044;SDS011;52192;52.002;5.956;2022-11-20T13:22:27;8.43;;;5.30;;
39044;SDS011;52192;52.002;5.956;2022-11-20T13:24:54;10.98;;;5.50;;
39044;SDS011;52192;52.002;5.956;2022-11-20T13:27:21;6.97;;;5.85;;
39044;SDS011;52192;52.002;5.956;2022-11-20T13:32:54;7.65;;;6.22;;
39044;SDS011;52192;52.002;5.956;2022-11-20T13:35:33;10.70;;;5.60;;
39044;SDS011;52192;52.002;5.956;2022-11-20T13:38:02;11.40;;;6.82;;
39044;SDS011;52192;52.002;5.956;2022-11-20T13:40:28;10.52;;;6.57;;
39044;SDS011;52192;52.002;5.956;2022-11-20T13:45:59;10.07;;;6.55;;
39044;SDS011;52192;52.002;5.956;2022-11-20T13:48:29;10.80;;;7.10;;
39044;SDS011;52192;52.002;5.956;2022-11-20T13:51:00;10.90;;;6.80;;
39044;SDS011;52192;52.002;5.956;2022-11-20T13:53:35;9.88;;;7.20;;
39044;SDS011;52192;52.002;5.956;2022-11-20T13:58:59;12.27;;;7.13;;
39044;SDS011;52192;52.002;5.956;2022-11-20T14:01:34;10.65;;;7.15;;
39044;SDS011;52192;52.002;5.956;2022-11-20T14:04:01;12.35;;;6.95;;
39044;SDS011;52192;52.002;5.956;2022-11-20T14:06:43;11.32;;;7.35;;
39044;SDS011;52192;52.002;5.956;2022-11-20T14:09:27;9.98;;;7.35;;
39044;SDS011;52192;52.002;5.956;2022-11-20T14:11:54;9.77;;;6.40;;
39044;SDS011;52192;52.002;5.956;2022-11-20T14:14:24;10.55;;;6.65;;
39044;SDS011;52192;52.002;5.956;2022-11-20T14:16:52;10.80;;;6.57;;
39044;SDS011;52192;52.002;5.956;2022-11-20T14:19:29;8.85;;;6.65;;
39044;SDS011;52192;52.002;5.956;2022-11-20T14:22:09;11.00;;;6.32;;
39044;SDS011;52192;52.002;5.956;2022-11-20T14:24:40;11.90;;;8.15;;
39044;SDS011;52192;52.002;5.956;2022-11-20T14:27:10;17.63;;;10.10;;
39044;SDS011;52192;52.002;5.956;2022-11-20T14:29:38;13.00;;;7.30;;
39044;SDS011;52192;52.002;5.956;2022-11-20T14:32:08;7.20;;;5.63;;
39044;SDS011;52192;52.002;5.956;2022-11-20T14:34:38;11.45;;;7.88;;
39044;SDS011;52192;52.002;5.956;2022-11-20T14:37:10;10.70;;;6.57;;
39044;SDS011;52192;52.002;5.956;2022-11-20T14:39:42;10.82;;;7.22;;
39044;SDS011;52192;52.002;5.956;2022-11-20T14:42:17;13.15;;;7.72;;
39044;SDS011;52192;52.002;5.956;2022-11-20T14:44:48;9.05;;;6.57;;
39044;SDS011;52192;52.002;5.956;2022-11-20T14:47:16;8.20;;;6.63;;
39044;SDS011;52192;52.002;5.956;2022-11-20T14:49:44;12.00;;;7.63;;
39044;SDS011;52192;52.002;5.956;2022-11-20T14:52:13;12.18;;;7.10;;
39044;SDS011;52192;52.002;5.956;2022-11-20T14:54:47;10.70;;;6.15;;
39044;SDS011;52192;52.002;5.956;2022-11-20T14:57:26;9.10;;;6.47;;
39044;SDS011;52192;52.002;5.956;2022-11-20T15:02:41;6.93;;;5.10;;
39044;SDS011;52192;52.002;5.956;2022-11-20T15:05:08;9.90;;;6.07;;
39044;SDS011;52192;52.002;5.956;2022-11-20T15:07:38;7.20;;;6.03;;
39044;SDS011;52192;52.002;5.956;2022-11-20T15:10:09;9.73;;;5.88;;
39044;SDS011;52192;52.002;5.956;2022-11-20T15:12:45;13.13;;;8.00;;
39044;SDS011;52192;52.002;5.956;2022-11-20T15:15:14;9.85;;;7.00;;
39044;SDS011;52192;52.002;5.956;2022-11-20T15:17:55;11.55;;;6.30;;
39044;SDS011;52192;52.002;5.956;2022-11-20T15:20:24;11.63;;;8.70;;
39044;SDS011;52192;52.002;5.956;2022-11-20T15:22:52;12.68;;;8.13;;
39044;SDS011;52192;52.002;5.956;2022-11-20T15:25:18;13.77;;;8.38;;
39044;SDS011;52192;52.002;5.956;2022-11-20T15:27:44;12.98;;;7.80;;
39044;SDS011;52192;52.002;5.956;2022-11-20T15:30:15;10.73;;;6.47;;
39044;SDS011;52192;52.002;5.956;2022-11-20T15:32:43;12.35;;;7.00;;
39044;SDS011;52192;52.002;5.956;2022-11-20T15:35:10;9.95;;;6.35;;
39044;SDS011;52192;52.002;5.956;2022-11-20T15:37:36;10.70;;;7.25;;
39044;SDS011;52192;52.002;5.956;2022-11-20T15:40:03;8.75;;;6.47;;
39044;SDS011;52192;52.002;5.956;2022-11-20T15:42:29;12.48;;;7.80;;
39044;SDS011;52192;52.002;5.956;2022-11-20T15:44:55;13.77;;;7.65;;
39044;SDS011;52192;52.002;5.956;2022-11-20T15:47:23;11.32;;;7.57;;
39044;SDS011;52192;52.002;5.956;2022-11-20T15:49:52;13.25;;;7.65;;
39044;SDS011;52192;52.002;5.956;2022-11-20T15:52:18;10.98;;;6.78;;
39044;SDS011;52192;52.002;5.956;2022-11-20T15:54:43;12.32;;;8.65;;
39044;SDS011;52192;52.002;5.956;2022-11-20T15:57:09;10.50;;;6.65;;
39044;SDS011;52192;52.002;5.956;2022-11-20T15:59:34;9.35;;;5.80;;
39044;SDS011;52192;52.002;5.956;2022-11-20T16:02:08;12.15;;;7.47;;
39044;SDS011;52192;52.002;5.956;2022-11-20T16:04:36;11.55;;;7.22;;
39044;SDS011;52192;52.002;5.956;2022-11-20T16:07:01;12.75;;;8.18;;
39044;SDS011;52192;52.002;5.956;2022-11-20T16:09:27;16.27;;;8.95;;
39044;SDS011;52192;52.002;5.956;2022-11-20T16:11:53;9.90;;;5.45;;
39044;SDS011;52192;52.002;5.956;2022-11-20T16:14:19;21.25;;;9.23;;
39044;SDS011;52192;52.002;5.956;2022-11-20T16:17:03;11.85;;;7.78;;
39044;SDS011;52192;52.002;5.956;2022-11-20T16:19:28;12.98;;;8.32;;
39044;SDS011;52192;52.002;5.956;2022-11-20T16:21:54;11.05;;;8.07;;
39044;SDS011;52192;52.002;5.956;2022-11-20T16:24:22;16.65;;;8.48;;
39044;SDS011;52192;52.002;5.956;2022-11-20T16:26:47;12.05;;;8.18;;
39044;SDS011;52192;52.002;5.956;2022-11-20T16:29:13;13.50;;;8.02;;